Time;durP1;ratioP1;P1;durP2;ratioP2;P2;SDS_P1;SDS_P2;PMS_P1;PMS_P2;Temp;Humidity;BMP_temperature;BMP_pressure;BME280_temperature;BME280_humidity;BME280_pressure;Samples;Min_cycle;Max_cycle;Signal;HPM_P1;HPM_P2
2023/01/17 00:01:06;;;;;;;;;;;;;;;;;;2096943;28;20136;-89
2023/01/17 00:02:07;;;;;;;13.23;8.02;;;;;;;;;;2096133;28;19915;-90
2023/01/17 00:03:08;;;;;;;;;;;;;;;;;;2088399;28;20052;-90
2023/01/17 00:10:50;;;;;;;14.50;9.35;;;;;;;;;;2098673;28;20085;-90
2023/01/17 00:11:50;;;;;;;;;;;;;;;;;;2098847;28;20017;-90
2023/01/17 00:12:53;;;;;;;14.63;8.97;;;;;;;;;;2106039;28;19904;-90
2023/01/17 00:13:54;;;;;;;20.20;11.20;;;;;;;;;;2099825;28;20038;-90
2023/01/17 00:14:55;;;;;;;;;;;;;;;;;;2090892;28;20407;-90
2023/01/17 00:15:55;;;;;;;16.02;11.18;;;;;;;;;;2090034;28;19967;-91
2023/01/17 00:16:56;;;;;;;14.82;9.93;;;;;;;;;;2089285;28;20025;-90
2023/01/17 00:17:56;;;;;;;;;;;;;;;;;;2089258;28;20114;-90
2023/01/17 00:26:04;;;;;;;19.52;12.65;;;;;;;;;;2071360;28;20061;-91
2023/01/17 01:33:40;;;;;;;12.55;7.47;;;;;;;;;;2089607;28;20029;-89
2023/01/17 01:34:40;;;;;;;;;;;;;;;;;;2089975;28;20494;-90
2023/01/17 01:35:41;;;;;;;15.70;7.37;;;;;;;;;;2097377;28;20359;-89
2023/01/17 01:36:42;;;;;;;11.98;7.80;;;;;;;;;;2088922;28;20171;-90
2023/01/17 01:37:43;;;;;;;;;;;;;;;;;;2090126;28;20114;-90
2023/01/17 01:38:44;;;;;;;13.27;7.50;;;;;;;;;;2089470;28;19909;-90
2023/01/17 01:39:45;;;;;;;14.05;7.82;;;;;;;;;;2089299;28;20033;-91
2023/01/17 01:40:48;;;;;;;;;;;;;;;;;;2089504;28;20372;-91
2023/01/17 01:41:48;;;;;;;12.18;9.35;;;;;;;;;;2081028;28;19913;-91
2023/01/17 01:42:52;;;;;;;;;;;;;;;;;;2080981;28;20087;-91
2023/01/17 01:43:54;;;;;;;11.25;7.57;;;;;;;;;;2088932;28;19908;-91
2023/01/17 01:44:57;;;;;;;11.73;7.45;;;;;;;;;;2080895;28;20037;-90
2023/01/17 01:45:57;;;;;;;13.75;8.15;;;;;;;;;;2089335;28;20021;-90
2023/01/17 01:46:58;;;;;;;;;;;;;;;;;;2097819;28;20070;-89
2023/01/17 01:48:05;;;;;;;10.77;7.00;;;;;;;;;;2089694;28;20364;-90
2023/01/17 01:49:23;;;;;;;9.02;6.93;;;;;;;;;;2089791;28;20329;-90
2023/01/17 01:50:25;;;;;;;11.82;7.55;;;;;;;;;;2089756;28;20334;-92
2023/01/17 01:51:32;;;;;;;13.55;7.88;;;;;;;;;;2084786;28;20469;-89
2023/01/17 01:52:35;;;;;;;12.48;8.45;;;;;;;;;;2094950;28;20211;-91
2023/01/17 01:53:39;;;;;;;11.65;7.13;;;;;;;;;;2093917;28;20102;-90
2023/01/17 01:54:46;;;;;;;13.55;7.55;;;;;;;;;;2089027;28;20025;-90
2023/01/17 01:55:49;;;;;;;11.80;7.43;;;;;;;;;;2089440;28;20017;-91
2023/01/17 02:12:09;;;;;;;11.98;7.80;;;;;;;;;;2086353;28;20075;-92
2023/01/17 02:13:16;;;;;;;11.30;7.50;;;;;;;;;;2090006;28;20527;-89
2023/01/17 02:14:20;;;;;;;11.18;7.68;;;;;;;;;;2092705;28;20159;-92
2023/01/17 02:15:32;;;;;;;11.15;7.70;;;;;;;;;;2088560;28;20031;-89
2023/01/17 02:16:58;;;;;;;12.93;7.25;;;;;;;;;;2089682;28;20032;-90
2023/01/17 02:18:36;;;;;;;12.25;7.63;;;;;;;;;;2093858;28;20350;-89
2023/01/17 02:20:17;;;;;;;13.10;7.80;;;;;;;;;;2088334;28;20025;-89
2023/01/17 02:21:36;;;;;;;12.80;7.95;;;;;;;;;;2060583;28;20125;-90
2023/01/17 02:23:12;;;;;;;14.27;8.45;;;;;;;;;;2065974;28;20030;-90
2023/01/17 02:24:40;;;;;;;16.65;9.73;;;;;;;;;;2063635;28;20509;-89
2023/01/17 02:26:02;;;;;;;19.05;10.35;;;;;;;;;;2066843;28;20379;-90
2023/01/17 02:27:43;;;;;;;20.40;11.75;;;;;;;;;;2071322;28;20045;-90
2023/01/17 02:29:14;;;;;;;17.08;10.07;;;;;;;;;;2062961;28;20650;-89
2023/01/17 02:30:18;;;;;;;17.23;10.02;;;;;;;;;;2067223;28;20030;-90
2023/01/17 02:32:02;;;;;;;16.27;10.60;;;;;;;;;;2062687;28;20038;-90
2023/01/17 02:33:08;;;;;;;14.23;9.50;;;;;;;;;;2052681;28;20046;-89
2023/01/17 02:34:15;;;;;;;17.05;10.35;;;;;;;;;;2055594;28;20023;-89
2023/01/17 02:35:48;;;;;;;16.30;10.50;;;;;;;;;;2063957;28;20508;-90
2023/01/17 02:37:03;;;;;;;13.20;8.57;;;;;;;;;;2088695;28;20023;-90
2023/01/17 02:38:34;;;;;;;14.70;8.80;;;;;;;;;;2088996;28;20026;-89
2023/01/17 02:40:08;;;;;;;17.42;9.27;;;;;;;;;;2088170;28;20186;-90
2023/01/17 02:41:20;;;;;;;15.63;9.95;;;;;;;;;;2060948;28;20378;-89
2023/01/17 02:42:26;;;;;;;14.57;9.63;;;;;;;;;;2082044;28;20026;-89
2023/01/17 02:43:27;;;;;;;16.30;10.23;;;;;;;;;;2081193;28;20022;-88
2023/01/17 02:44:28;;;;;;;;;;;;;;;;;;2082880;28;20018;-88
2023/01/17 02:45:28;;;;;;;13.10;9.67;;;;;;;;;;2091291;28;19927;-87
2023/01/17 02:46:28;;;;;;;;;;;;;;;;;;2093529;28;20033;-88
2023/01/17 02:47:30;;;;;;;20.40;10.90;;;;;;;;;;2092583;28;20063;-89
2023/01/17 02:49:20;;;;;;;14.32;9.50;;;;;;;;;;2095701;28;20060;-89
2023/01/17 02:50:24;;;;;;;14.13;8.50;;;;;;;;;;2099224;28;20040;-90
2023/01/17 02:51:37;;;;;;;15.90;9.32;;;;;;;;;;2079867;28;20068;-90
2023/01/17 02:52:46;;;;;;;11.65;8.23;;;;;;;;;;2084096;28;20033;-90
2023/01/17 02:54:17;;;;;;;10.10;7.88;;;;;;;;;;2095473;28;20029;-90
2023/01/17 02:55:55;;;;;;;16.02;8.88;;;;;;;;;;2094797;28;20080;-88
2023/01/17 02:57:17;;;;;;;12.93;8.45;;;;;;;;;;2088219;28;20063;-90
2023/01/17 02:58:59;;;;;;;12.45;7.90;;;;;;;;;;2082227;28;20166;-90
2023/01/17 03:00:09;;;;;;;11.70;7.85;;;;;;;;;;2074949;28;20087;-90
2023/01/17 03:01:23;;;;;;;12.52;8.02;;;;;;;;;;2089303;28;20028;-90
2023/01/17 03:02:50;;;;;;;11.25;7.55;;;;;;;;;;2088697;28;20064;-88
2023/01/17 03:04:08;;;;;;;12.90;7.80;;;;;;;;;;2087715;28;20111;-89
2023/01/17 03:05:24;;;;;;;11.15;8.18;;;;;;;;;;2087897;28;20040;-90
2023/01/17 03:06:36;;;;;;;12.98;8.02;;;;;;;;;;2088542;28;20094;-90
2023/01/17 03:07:38;;;;;;;12.70;8.73;;;;;;;;;;2088799;28;20025;-89
2023/01/17 03:08:42;;;;;;;13.43;8.65;;;;;;;;;;2091922;28;20025;-89
2023/01/17 03:09:45;;;;;;;12.98;8.30;;;;;;;;;;2092970;28;20025;-89
2023/01/17 03:11:01;;;;;;;11.52;7.93;;;;;;;;;;2094480;28;20435;-88
2023/01/17 03:14:12;;;;;;;13.23;7.45;;;;;;;;;;2092329;28;20099;-89
2023/01/17 03:15:16;;;;;;;12.30;7.40;;;;;;;;;;2090080;28;20068;-89
2023/01/17 03:16:19;;;;;;;11.40;7.88;;;;;;;;;;2089275;28;20020;-89
2023/01/17 03:17:22;;;;;;;13.00;8.25;;;;;;;;;;2089443;28;20057;-90
2023/01/17 03:18:25;;;;;;;12.38;7.43;;;;;;;;;;2091300;28;20051;-89
2023/01/17 03:19:26;;;;;;;12.63;8.50;;;;;;;;;;2096245;28;20028;-90
2023/01/17 03:20:26;;;;;;;;;;;;;;;;;;2093637;28;20523;-89
2023/01/17 04:17:59;;;;;;;10.23;6.70;;;;;;;;;;2085914;28;20435;-90
2023/01/17 04:19:18;;;;;;;;;;;;;;;;;;2089027;28;20045;-91
2023/01/17 04:20:37;;;;;;;9.05;5.93;;;;;;;;;;2079905;28;19912;-93
2023/01/17 04:21:41;;;;;;;11.90;6.85;;;;;;;;;;2074891;28;20093;-93
2023/01/17 04:23:46;;;;;;;;;;;;;;;;;;;;;
2023/01/17 04:24:55;;;;;;;12.23;6.32;;;;;;;;;;2060112;28;20121;-93
2023/01/17 04:25:58;;;;;;;9.43;6.30;;;;;;;;;;2063717;28;20057;-94
2023/01/17 04:27:14;;;;;;;;;;;;;;;;;;;;;
2023/01/17 04:28:37;;;;;;;11.63;6.82;;;;;;;;;;2083792;28;20140;-94
2023/01/17 04:29:38;;;;;;;10.80;6.53;;;;;;;;;;2066203;28;20158;-94
2023/01/17 04:30:38;;;;;;;;;;;;;;;;;;2070243;28;20038;-94
2023/01/17 04:31:38;;;;;;;7.00;5.60;;;;;;;;;;2073119;28;19992;-95
2023/01/17 04:32:39;;;;;;;;;;;;;;;;;;2081818;28;20033;-95
2023/01/17 04:33:39;;;;;;;12.40;6.37;;;;;;;;;;2081123;28;20287;-95
2023/01/17 04:35:03;;;;;;;8.55;6.18;;;;;;;;;;2073127;28;20044;-93
2023/01/17 04:36:05;;;;;;;9.90;6.13;;;;;;;;;;2076499;28;20061;-95
2023/01/17 04:37:06;;;;;;;8.38;6.10;;;;;;;;;;2081716;28;20040;-94
2023/01/17 04:38:09;;;;;;;;;;;;;;;;;;2081642;28;20064;-94
2023/01/17 04:39:10;;;;;;;9.73;6.68;;;;;;;;;;2073154;28;19916;-95
2023/01/17 04:40:10;;;;;;;;;;;;;;;;;;2072891;28;20041;-94
2023/01/17 04:42:35;;;;;;;8.93;6.15;;;;;;;;;;2084530;28;20079;-94
2023/01/17 04:43:35;;;;;;;;;;;;;;;;;;2081325;28;20061;-95
2023/01/17 04:44:45;;;;;;;9.57;6.10;;;;;;;;;;1023393;28;10001165;-95
2023/01/17 04:45:53;;;;;;;7.18;6.35;;;;;;;;;;2073917;28;20038;-95
2023/01/17 04:47:05;;;;;;;7.93;6.53;;;;;;;;;;2081077;28;20033;-94
2023/01/17 04:48:11;;;;;;;11.68;6.60;;;;;;;;;;2071261;28;20485;-95
2023/01/17 04:49:11;;;;;;;8.88;6.68;;;;;;;;;;2073063;28;20109;-95
2023/01/17 04:50:33;;;;;;;;;;;;;;;;;;;;;
2023/01/17 04:51:40;;;;;;;10.40;5.97;;;;;;;;;;2087654;28;19913;-95
2023/01/17 04:52:40;;;;;;;;;;;;;;;;;;2081093;28;20053;-93
2023/01/17 04:53:41;;;;;;;10.43;6.40;;;;;;;;;;2081140;28;19912;-94
2023/01/17 04:54:41;;;;;;;;;;;;;;;;;;2082266;28;20115;-95
2023/01/17 04:55:45;;;;;;;7.03;4.63;;;;;;;;;;2074198;28;19964;-94
2023/01/17 04:56:46;;;;;;;8.40;4.53;;;;;;;;;;2074424;28;20064;-95
2023/01/17 04:57:46;;;;;;;;;;;;;;;;;;2066780;28;20454;-94
2023/01/17 04:58:47;;;;;;;6.97;5.30;;;;;;;;;;2082652;28;20318;-93
2023/01/17 04:59:57;;;;;;;;;;;;;;;;;;;;;
2023/01/17 05:01:15;;;;;;;9.85;5.78;;;;;;;;;;2085089;28;20147;-95
2023/01/17 05:02:18;;;;;;;9.50;5.80;;;;;;;;;;2074687;28;20516;-93
2023/01/17 05:03:31;;;;;;;9.50;4.97;;;;;;;;;;2075309;28;20095;-95
2023/01/17 05:05:37;;;;;;;;;;;;;;;;;;;;;
2023/01/17 05:06:58;;;;;;;;;;;;;;;;;;;;;
2023/01/17 05:08:02;;;;;;;11.77;6.03;;;;;;;;;;2097597;28;20017;-94
2023/01/17 05:09:03;;;;;;;8.43;5.70;;;;;;;;;;2092258;28;20022;-94
2023/01/17 05:10:05;;;;;;;;;;;;;;;;;;2077783;28;20632;-95
2023/01/17 05:11:08;;;;;;;8.18;5.40;;;;;;;;;;1735580;28;10001154;-94
2023/01/17 05:12:35;;;;;;;9.95;6.00;;;;;;;;;;2091231;28;20033;-95
2023/01/17 05:13:51;;;;;;;;;;;;;;;;;;;;;
2023/01/17 05:14:52;;;;;;;9.57;4.97;;;;;;;;;;2084264;28;20029;-94
2023/01/17 05:16:06;;;;;;;;;;;;;;;;;;2082316;28;20124;-93
2023/01/17 05:17:09;;;;;;;9.37;5.47;;;;;;;;;;1730029;28;10001826;-93
2023/01/17 05:27:02;;;;;;;8.60;5.05;;;;;;;;;;2090159;28;20033;-95
2023/01/17 05:28:10;;;;;;;8.82;5.22;;;;;;;;;;2084622;28;20037;-93
2023/01/17 05:29:12;;;;;;;7.60;5.10;;;;;;;;;;2093065;28;20045;-93
2023/01/17 05:31:12;;;;;;;;;;;;;;;;;;;;;
2023/01/17 05:34:36;;;;;;;;;;;;;;;;;;;;;
2023/01/17 05:35:40;;;;;;;8.98;5.53;;;;;;;;;;2090840;28;20127;-94
2023/01/17 05:36:40;;;;;;;7.15;5.10;;;;;;;;;;2083134;28;20038;-94
2023/01/17 05:37:47;;;;;;;;;;;;;;;;;;2082630;28;20091;-94
2023/01/17 05:38:48;;;;;;;7.35;4.95;;;;;;;;;;2082577;28;19909;-93
2023/01/17 05:39:59;;;;;;;;;;;;;;;;;;2082367;28;20037;-94
2023/01/17 05:41:03;;;;;;;10.02;5.28;;;;;;;;;;2083106;28;20362;-95
2023/01/17 05:42:04;;;;;;;9.35;4.82;;;;;;;;;;2081349;28;20113;-94
2023/01/17 05:43:04;;;;;;;;;;;;;;;;;;2081768;28;20036;-92
2023/01/17 05:44:06;;;;;;;5.93;4.70;;;;;;;;;;2089734;28;19967;-93
2023/01/17 05:45:08;;;;;;;10.55;5.40;;;;;;;;;;2073382;28;20026;-94
2023/01/17 05:46:09;;;;;;;9.15;5.55;;;;;;;;;;2073555;28;20093;-94
2023/01/17 05:47:09;;;;;;;;;;;;;;;;;;2073793;28;20101;-94
2023/01/17 05:48:10;;;;;;;7.80;5.60;;;;;;;;;;2081471;28;20080;-94
2023/01/17 05:49:10;;;;;;;7.45;4.97;;;;;;;;;;2095335;28;20020;-94
2023/01/17 05:50:11;;;;;;;;;;;;;;;;;;2092322;28;20052;-94
2023/01/17 05:51:12;;;;;;;7.80;5.07;;;;;;;;;;2091930;28;19917;-93
2023/01/17 05:52:12;;;;;;;11.18;5.10;;;;;;;;;;2091247;28;20029;-93
2023/01/17 05:53:15;;;;;;;10.20;5.32;;;;;;;;;;2082344;28;20037;-92
2023/01/17 05:54:16;;;;;;;7.15;4.32;;;;;;;;;;2089123;28;20068;-92
2023/01/17 05:55:16;;;;;;;;;;;;;;;;;;2083120;28;20025;-93
2023/01/17 05:56:21;;;;;;;11.07;5.50;;;;;;;;;;2074548;28;19964;-92
2023/01/17 05:57:22;;;;;;;8.98;4.97;;;;;;;;;;2074780;28;20109;-94
2023/01/17 05:58:23;;;;;;;;;;;;;;;;;;2085471;28;20017;-95
2023/01/17 05:59:24;;;;;;;7.07;4.83;;;;;;;;;;2083292;28;19909;-95
2023/01/17 06:00:28;;;;;;;10.40;4.72;;;;;;;;;;2083598;28;20033;-96
2023/01/17 06:01:29;;;;;;;6.60;4.78;;;;;;;;;;2091092;28;20449;-96
2023/01/17 06:02:52;;;;;;;;;;;;;;;;;;2083237;28;20029;-94
2023/01/17 06:03:59;;;;;;;8.88;5.40;;;;;;;;;;2088587;28;19919;-94
2023/01/17 06:17:52;;;;;;;12.32;5.68;;;;;;;;;;2042393;29;20438;-94
2023/01/17 06:18:52;;;;;;;11.82;5.40;;;;;;;;;;2034019;29;20519;-94
2023/01/17 06:19:53;;;;;;;;;;;;;;;;;;2026231;29;20055;-94
2023/01/17 06:20:56;;;;;;;9.23;4.67;;;;;;;;;;2033791;29;19918;-95
2023/01/17 06:22:04;;;;;;;13.50;6.18;;;;;;;;;;2033354;29;20025;-95
2023/01/17 06:23:23;;;;;;;10.77;5.28;;;;;;;;;;2029464;29;20032;-94
2023/01/17 06:24:29;;;;;;;14.05;5.68;;;;;;;;;;2039940;28;20111;-95
2023/01/17 06:26:00;;;;;;;13.05;6.68;;;;;;;;;;2071733;28;20030;-95
2023/01/17 06:27:39;;;;;;;11.30;6.65;;;;;;;;;;2062882;28;20117;-94
2023/01/17 06:28:50;;;;;;;10.80;5.70;;;;;;;;;;2066367;28;20044;-94
2023/01/17 06:42:26;;;;;;;9.98;5.95;;;;;;;;;;2010791;29;20037;-95
2023/01/17 06:43:35;;;;;;;13.35;6.32;;;;;;;;;;2027527;29;20040;-95
2023/01/17 06:47:07;;;;;;;13.00;5.63;;;;;;;;;;2071613;28;20151;-95
2023/01/17 06:48:11;;;;;;;10.00;5.13;;;;;;;;;;2064604;28;20035;-96
2023/01/17 06:50:48;;;;;;;11.32;5.25;;;;;;;;;;2060324;28;20035;-95
2023/01/17 06:53:36;;;;;;;10.15;4.57;;;;;;;;;;2033423;29;20462;-94
2023/01/17 06:54:36;;;;;;;7.38;4.35;;;;;;;;;;2038284;29;20066;-96
2023/01/17 06:55:41;;;;;;;7.63;4.20;;;;;;;;;;1751642;28;10108201;-93
2023/01/17 06:56:51;;;;;;;10.43;5.00;;;;;;;;;;2065526;28;20255;-95
2023/01/17 06:57:54;;;;;;;8.77;4.60;;;;;;;;;;2066789;28;20057;-95
2023/01/17 06:58:55;;;;;;;9.75;5.38;;;;;;;;;;2069161;28;20046;-94
2023/01/17 07:01:40;;;;;;;16.02;4.80;;;;;;;;;;2065747;28;20045;-93
2023/01/17 07:02:40;;;;;;;10.93;4.63;;;;;;;;;;2078918;28;20553;-94
2023/01/17 07:03:41;;;;;;;9.40;4.78;;;;;;;;;;2080929;28;20199;-94
2023/01/17 07:04:41;;;;;;;9.93;4.85;;;;;;;;;;2080805;28;20048;-92
2023/01/17 07:05:42;;;;;;;9.00;5.00;;;;;;;;;;2072371;28;20034;-94
2023/01/17 07:06:45;;;;;;;8.07;4.65;;;;;;;;;;2079067;28;20057;-92
2023/01/17 07:07:56;;;;;;;7.35;4.53;;;;;;;;;;2072594;28;20056;-94
2023/01/17 07:08:57;;;;;;;10.27;5.00;;;;;;;;;;2076515;28;20042;-93
2023/01/17 07:09:59;;;;;;;6.50;4.50;;;;;;;;;;2080515;28;20033;-92
2023/01/17 07:11:02;;;;;;;8.93;5.18;;;;;;;;;;2081145;28;20052;-92
2023/01/17 07:12:03;;;;;;;10.13;4.43;;;;;;;;;;2089106;28;20036;-92
2023/01/17 07:13:03;;;;;;;8.82;3.90;;;;;;;;;;2081282;28;20088;-95
2023/01/17 07:14:03;;;;;;;7.55;3.50;;;;;;;;;;2081238;28;20055;-94
2023/01/17 07:15:05;;;;;;;14.43;5.03;;;;;;;;;;2080848;28;20029;-94
2023/01/17 07:16:07;;;;;;;7.25;4.25;;;;;;;;;;2072190;28;20033;-93
2023/01/17 07:17:07;;;;;;;8.40;4.47;;;;;;;;;;2080606;28;20034;-94
2023/01/17 07:18:08;;;;;;;9.25;3.90;;;;;;;;;;2080599;28;20088;-93
2023/01/17 07:19:08;;;;;;;7.35;3.90;;;;;;;;;;2072670;28;20030;-95
2023/01/17 07:20:09;;;;;;;;;;;;;;;;;;2081475;28;20432;-93
2023/01/17 07:21:13;;;;;;;5.60;3.70;;;;;;;;;;2080539;28;19913;-93
2023/01/17 07:22:13;;;;;;;9.18;4.07;;;;;;;;;;2079501;28;20045;-92
2023/01/17 07:23:14;;;;;;;6.57;4.43;;;;;;;;;;2072578;28;20083;-94
2023/01/17 07:24:14;;;;;;;8.90;4.53;;;;;;;;;;2072463;28;20416;-93
2023/01/17 07:25:14;;;;;;;7.88;4.18;;;;;;;;;;2072663;28;20545;-93
2023/01/17 07:26:16;;;;;;;6.13;3.80;;;;;;;;;;2080320;28;20041;-93
2023/01/17 07:27:16;;;;;;;7.65;3.85;;;;;;;;;;2072501;28;20045;-93
2023/01/17 07:28:17;;;;;;;8.88;4.10;;;;;;;;;;2074472;28;20037;-94
2023/01/17 07:29:25;;;;;;;7.22;4.18;;;;;;;;;;2083283;28;20107;-93
2023/01/17 07:30:33;;;;;;;6.93;3.72;;;;;;;;;;2073134;28;20184;-93
2023/01/17 07:31:49;;;;;;;7.43;3.67;;;;;;;;;;2075691;28;20041;-93
2023/01/17 07:32:51;;;;;;;7.30;4.10;;;;;;;;;;2081297;28;20052;-93
2023/01/17 07:33:52;;;;;;;6.18;3.67;;;;;;;;;;2072130;28;20038;-92
2023/01/17 07:34:55;;;;;;;9.43;3.92;;;;;;;;;;2072389;28;20117;-93
2023/01/17 07:35:56;;;;;;;7.40;4.10;;;;;;;;;;2072244;28;20038;-92
2023/01/17 07:36:56;;;;;;;7.35;3.25;;;;;;;;;;2071443;28;20062;-92
2023/01/17 07:37:57;;;;;;;9.25;3.42;;;;;;;;;;2072445;28;20429;-93
2023/01/17 07:38:57;;;;;;;6.13;3.75;;;;;;;;;;2080578;28;20096;-92
2023/01/17 07:39:59;;;;;;;9.93;4.03;;;;;;;;;;2080677;28;20049;-93
2023/01/17 07:41:00;;;;;;;5.97;3.60;;;;;;;;;;2072029;28;20038;-93
2023/01/17 08:02:03;;;;;;;9.55;4.60;;;;;;;;;;2541497;23;20331;-92
2023/01/17 08:03:04;;;;;;;7.90;4.90;;;;;;;;;;2533997;23;20021;-91
2023/01/17 08:04:05;;;;;;;8.80;4.40;;;;;;;;;;2534595;23;20416;-92
2023/01/17 08:05:06;;;;;;;6.28;4.90;;;;;;;;;;2539341;23;20069;-91
2023/01/17 08:06:16;;;;;;;11.65;4.40;;;;;;;;;;2521900;23;20028;-91
2023/01/17 08:07:16;;;;;;;6.30;3.45;;;;;;;;;;2511759;23;20109;-91
2023/01/17 08:08:17;;;;;;;7.15;3.58;;;;;;;;;;2522244;23;20530;-92
2023/01/17 08:09:17;;;;;;;6.60;3.70;;;;;;;;;;2510332;23;20005;-91
2023/01/17 08:10:18;;;;;;;8.60;3.40;;;;;;;;;;2525086;23;20005;-93
2023/01/17 08:11:18;;;;;;;10.30;4.70;;;;;;;;;;2528990;23;20389;-94
2023/01/17 08:12:19;;;;;;;11.05;4.43;;;;;;;;;;2523336;23;20054;-93
2023/01/17 08:13:23;;;;;;;5.07;2.80;;;;;;;;;;2511074;23;19994;-91
2023/01/17 08:14:26;;;;;;;6.38;3.50;;;;;;;;;;2512744;23;20025;-95
2023/01/17 08:15:27;;;;;;;7.95;3.70;;;;;;;;;;2510915;23;19990;-93
2023/01/17 08:16:28;;;;;;;7.93;3.47;;;;;;;;;;2521861;23;20442;-94
2023/01/17 08:17:28;;;;;;;4.78;3.50;;;;;;;;;;2510175;23;20480;-94
2023/01/17 08:18:29;;;;;;;5.65;2.88;;;;;;;;;;2510113;23;20006;-95
2023/01/17 08:19:30;;;;;;;5.20;3.33;;;;;;;;;;2526387;23;20025;-95
2023/01/17 08:20:30;;;;;;;7.45;3.50;;;;;;;;;;2539152;23;20022;-95
2023/01/17 08:21:31;;;;;;;8.40;4.25;;;;;;;;;;2524173;23;20009;-93
2023/01/17 08:22:37;;;;;;;7.72;4.30;;;;;;;;;;2523326;23;20337;-93
2023/01/17 08:23:37;;;;;;;7.97;4.35;;;;;;;;;;2511510;23;20005;-94
2023/01/17 08:24:38;;;;;;;14.65;6.22;;;;;;;;;;2510578;23;19995;-95
2023/01/17 08:25:38;;;;;;;8.00;3.85;;;;;;;;;;2523494;23;20395;-94
2023/01/17 08:26:39;;;;;;;9.07;4.38;;;;;;;;;;2517076;23;19983;-93
2023/01/17 08:27:40;;;;;;;4.78;2.85;;;;;;;;;;2517991;23;19999;-95
2023/01/17 08:28:47;;;;;;;9.77;4.40;;;;;;;;;;2510305;23;20295;-93
2023/01/17 08:29:48;;;;;;;5.38;2.80;;;;;;;;;;2515593;23;19999;-94
2023/01/17 08:30:48;;;;;;;5.68;3.17;;;;;;;;;;2524332;23;20486;-93
2023/01/17 08:31:49;;;;;;;3.65;2.60;;;;;;;;;;2522362;23;20034;-95
2023/01/17 08:32:50;;;;;;;4.18;2.60;;;;;;;;;;2510146;23;19995;-94
2023/01/17 08:33:52;;;;;;;2.83;1.80;;;;;;;;;;2525920;23;20136;-94
2023/01/17 08:34:55;;;;;;;3.75;2.42;;;;;;;;;;2522359;23;20085;-94
2023/01/17 08:35:55;;;;;;;7.45;3.60;;;;;;;;;;2522288;23;20022;-94
2023/01/17 08:36:56;;;;;;;5.90;2.47;;;;;;;;;;2521548;23;20414;-94
2023/01/17 08:37:58;;;;;;;7.07;2.80;;;;;;;;;;2525994;23;19995;-95
2023/01/17 08:38:59;;;;;;;6.05;3.03;;;;;;;;;;2521803;23;20291;-95
2023/01/17 08:40:00;;;;;;;6.15;3.38;;;;;;;;;;2521671;23;19998;-94
2023/01/17 08:41:01;;;;;;;8.10;3.05;;;;;;;;;;2509880;23;20030;-94
2023/01/17 08:42:03;;;;;;;8.10;3.33;;;;;;;;;;2100736;22;10001691;-95
2023/01/17 08:43:03;;;;;;;4.80;2.97;;;;;;;;;;2497769;23;20003;-94
2023/01/17 08:44:04;;;;;;;6.43;3.67;;;;;;;;;;2503287;23;20504;-94
2023/01/17 08:45:07;;;;;;;7.00;3.80;;;;;;;;;;2521900;23;20099;-95
2023/01/17 08:46:07;;;;;;;4.97;2.85;;;;;;;;;;2510587;23;19995;-94
2023/01/17 08:47:08;;;;;;;5.63;2.67;;;;;;;;;;2510111;23;20026;-95
2023/01/17 08:48:09;;;;;;;6.28;3.70;;;;;;;;;;2526035;23;20430;-95
2023/01/17 08:49:12;;;;;;;8.13;3.22;;;;;;;;;;2522132;23;20005;-94
2023/01/17 08:50:14;;;;;;;7.50;3.20;;;;;;;;;;2510497;23;20110;-93
2023/01/17 08:51:15;;;;;;;4.75;2.83;;;;;;;;;;2510366;23;20002;-94
2023/01/17 08:52:17;;;;;;;6.15;2.97;;;;;;;;;;2509771;23;19999;-94
2023/01/17 08:53:20;;;;;;;4.32;3.45;;;;;;;;;;2510304;23;20002;-94
2023/01/17 08:54:21;;;;;;;8.45;3.72;;;;;;;;;;2521819;23;20441;-94
2023/01/17 08:55:22;;;;;;;6.40;3.30;;;;;;;;;;2509801;23;20078;-94
2023/01/17 08:56:25;;;;;;;8.70;2.80;;;;;;;;;;2509960;23;20010;-94
2023/01/17 08:57:26;;;;;;;4.00;2.45;;;;;;;;;;2511194;23;19998;-93
2023/01/17 08:58:28;;;;;;;5.28;2.38;;;;;;;;;;2509653;23;20008;-95
2023/01/17 08:59:31;;;;;;;6.40;3.33;;;;;;;;;;2510147;23;19995;-94
2023/01/17 09:00:41;;;;;;;7.57;3.17;;;;;;;;;;2521534;23;20073;-95
2023/01/17 09:01:44;;;;;;;5.63;3.55;;;;;;;;;;2522610;23;20044;-93
2023/01/17 09:02:45;;;;;;;6.05;3.10;;;;;;;;;;2519460;23;20000;-94
2023/01/17 09:03:48;;;;;;;9.77;3.90;;;;;;;;;;2518725;23;19999;-94
2023/01/17 09:04:49;;;;;;;8.77;3.72;;;;;;;;;;2507523;23;20005;-95
2023/01/17 09:05:59;;;;;;;6.32;3.20;;;;;;;;;;2507502;23;20443;-95
2023/01/17 09:07:01;;;;;;;6.03;2.67;;;;;;;;;;2508880;23;20501;-94
2023/01/17 09:08:02;;;;;;;6.78;2.53;;;;;;;;;;2507235;23;20007;-94
2023/01/17 09:09:04;;;;;;;6.22;2.80;;;;;;;;;;2507270;23;20506;-94
2023/01/17 09:10:07;;;;;;;5.00;2.80;;;;;;;;;;2509952;23;20003;-93
2023/01/17 09:11:11;;;;;;;6.05;2.97;;;;;;;;;;2516999;22;20015;-94
2023/01/17 09:12:11;;;;;;;6.90;3.90;;;;;;;;;;2518947;22;20006;-93
2023/01/17 09:13:12;;;;;;;9.10;3.40;;;;;;;;;;2517945;23;20075;-94
2023/01/17 09:20:23;;;;;;;6.07;2.67;;;;;;;;;;2495152;23;20008;-93
2023/01/17 09:21:25;;;;;;;7.40;3.05;;;;;;;;;;2464050;24;20441;-93
2023/01/17 09:22:58;;;;;;;5.75;2.50;;;;;;;;;;2448746;24;20005;-92
2023/01/17 09:24:17;;;;;;;5.40;2.88;;;;;;;;;;2494709;23;20545;-93
2023/01/17 09:25:18;;;;;;;5.68;2.80;;;;;;;;;;2485245;23;20026;-93
2023/01/17 09:26:24;;;;;;;3.03;2.45;;;;;;;;;;2489241;23;20079;-93
2023/01/17 09:27:33;;;;;;;6.35;3.20;;;;;;;;;;2485373;23;20000;-92
2023/01/17 09:28:39;;;;;;;6.25;2.63;;;;;;;;;;2489605;23;20006;-93
2023/01/17 09:30:00;;;;;;;7.80;2.85;;;;;;;;;;2501439;23;19996;-93
2023/01/17 09:31:07;;;;;;;9.55;3.08;;;;;;;;;;2559197;23;20024;-93
2023/01/17 09:32:08;;;;;;;6.43;2.63;;;;;;;;;;2555174;23;20030;-93
2023/01/17 09:33:11;;;;;;;4.97;2.95;;;;;;;;;;2541763;23;19990;-93
2023/01/17 09:34:13;;;;;;;5.93;2.83;;;;;;;;;;2542153;23;19997;-93
2023/01/17 09:35:17;;;;;;;9.68;2.88;;;;;;;;;;2541724;23;20002;-91
2023/01/17 09:36:17;;;;;;;4.82;2.40;;;;;;;;;;2549659;23;20084;-92
2023/01/17 09:37:38;;;;;;;6.47;2.95;;;;;;;;;;2545345;23;20009;-92
2023/01/17 09:38:41;;;;;;;6.53;3.35;;;;;;;;;;2540798;23;20021;-94
2023/01/17 09:39:42;;;;;;;7.30;2.75;;;;;;;;;;2545029;23;20059;-92
2023/01/17 09:40:46;;;;;;;6.82;2.83;;;;;;;;;;2544743;23;20476;-93
2023/01/17 09:48:45;;;;;;;5.55;2.75;;;;;;;;;;2514480;23;20007;-95
2023/01/17 09:49:48;;;;;;;6.30;2.85;;;;;;;;;;2472647;23;20432;-93
2023/01/17 09:51:53;;;;;;;;;;;;;;;;;;;;;
2023/01/17 10:09:48;;;;;;;7.93;2.70;;;;;;;;;;2512263;23;20327;-94
2023/01/17 10:11:55;;;;;;;;;;;;;;;;;;;;;
2023/01/17 10:13:42;;;;;;;5.47;2.85;;;;;;;;;;2460988;24;20065;-92
2023/01/17 10:21:25;;;;;;;;;;;;;;;;;;;;;
2023/01/17 10:22:29;;;;;;;9.82;3.22;;;;;;;;;;2468034;23;20008;-92
2023/01/17 10:29:50;;;;;;;;;;;;;;;;;;;;;
2023/01/17 10:35:40;;;;;;;;;;;;;;;;;;;;;
2023/01/17 10:48:45;;;;;;;6.85;3.08;;;;;;;;;;2495416;23;19996;-94
2023/01/17 10:49:58;;;;;;;6.57;2.95;;;;;;;;;;2509062;23;19995;-93
2023/01/17 10:53:14;;;;;;;5.45;2.95;;;;;;;;;;2548293;23;19998;-93
2023/01/17 10:55:08;;;;;;;5.80;2.90;;;;;;;;;;2528740;23;20014;-94
2023/01/17 11:00:43;;;;;;;5.53;2.83;;;;;;;;;;2484330;23;20003;-95
2023/01/17 11:01:45;;;;;;;4.72;2.70;;;;;;;;;;2479893;23;20008;-92
2023/01/17 11:02:49;;;;;;;5.95;2.70;;;;;;;;;;2479420;23;20422;-95
2023/01/17 11:03:52;;;;;;;4.85;2.08;;;;;;;;;;2501564;23;20045;-93
2023/01/17 11:04:55;;;;;;;6.45;2.65;;;;;;;;;;2517447;23;20014;-93
2023/01/17 11:06:46;;;;;;;4.75;2.60;;;;;;;;;;2516691;23;20002;-92
2023/01/17 11:08:01;;;;;;;8.07;2.50;;;;;;;;;;2510095;23;19995;-92
2023/01/17 11:09:02;;;;;;;8.23;3.00;;;;;;;;;;2514772;23;20015;-92
2023/01/17 11:10:35;;;;;;;9.50;3.13;;;;;;;;;;2519928;23;20081;-93
2023/01/17 11:11:52;;;;;;;9.18;3.80;;;;;;;;;;2512337;23;20061;-92
2023/01/17 11:13:17;;;;;;;6.45;3.38;;;;;;;;;;2511090;23;20003;-92
2023/01/17 11:18:30;;;;;;;10.25;3.80;;;;;;;;;;2511866;23;20006;-94
2023/01/17 11:19:35;;;;;;;8.40;3.78;;;;;;;;;;2517211;23;20006;-93
2023/01/17 11:20:38;;;;;;;8.65;4.30;;;;;;;;;;2553431;23;20053;-93
2023/01/17 11:21:49;;;;;;;9.70;3.72;;;;;;;;;;2552335;23;20021;-92
2023/01/17 11:23:21;;;;;;;8.82;3.25;;;;;;;;;;2541826;23;19998;-92
2023/01/17 11:24:47;;;;;;;5.20;2.60;;;;;;;;;;2551238;23;20013;-93
2023/01/17 11:26:01;;;;;;;7.30;2.78;;;;;;;;;;2544922;23;20080;-92
2023/01/17 11:27:04;;;;;;;9.13;3.72;;;;;;;;;;2549821;23;20001;-91
2023/01/17 11:28:18;;;;;;;7.60;2.97;;;;;;;;;;2560959;23;20012;-92
2023/01/17 11:29:35;;;;;;;10.10;4.00;;;;;;;;;;2556967;23;20076;-93
2023/01/17 11:31:17;;;;;;;9.95;4.00;;;;;;;;;;2554470;23;20034;-94
2023/01/17 11:32:33;;;;;;;9.75;4.78;;;;;;;;;;2128492;23;10001279;-94
2023/01/17 11:33:52;;;;;;;8.80;5.43;;;;;;;;;;2557151;23;20001;-93
2023/01/17 11:35:15;;;;;;;9.75;4.72;;;;;;;;;;2556799;23;20077;-93
2023/01/17 11:36:54;;;;;;;6.28;4.50;;;;;;;;;;2561672;23;19997;-93
2023/01/17 11:38:17;;;;;;;11.93;6.00;;;;;;;;;;2120224;23;10001383;-92
2023/01/17 11:40:41;;;;;;;23.17;9.18;;;;;;;;;;2511967;23;19999;-93
2023/01/17 11:42:52;;;;;;;;;;;;;;;;;;;;;
2023/01/17 11:44:35;;;;;;;19.50;6.88;;;;;;;;;;2531646;23;20337;-95
2023/01/17 11:47:42;;;;;;;16.80;6.78;;;;;;;;;;2500295;23;19995;-92
2023/01/17 11:48:50;;;;;;;15.82;6.18;;;;;;;;;;2547791;23;20001;-93
2023/01/17 11:49:56;;;;;;;13.18;5.55;;;;;;;;;;2561589;23;20404;-92